sensor_id;sensor_type;location;lat;lon;timestamp;temperature;humidity
4052;DHT22;2040;50.924;11.604;2023-03-19T00:01:07;8.60;99.90
4052;DHT22;2040;50.924;11.604;2023-03-19T00:03:33;8.60;99.90
4052;DHT22;2040;50.924;11.604;2023-03-19T00:05:59;8.50;99.90
4052;DHT22;2040;50.924;11.604;2023-03-19T00:08:25;8.40;99.90
4052;DHT22;2040;50.924;11.604;2023-03-19T00:10:51;8.40;99.90
4052;DHT22;2040;50.924;11.604;2023-03-19T00:13:18;8.40;99.90
4052;DHT22;2040;50.924;11.604;2023-03-19T00:15:43;8.40;99.90
4052;DHT22;2040;50.924;11.604;2023-03-19T00:18:09;8.40;99.90
4052;DHT22;2040;50.924;11.604;2023-03-19T00:20:35;8.40;99.90
4052;DHT22;2040;50.924;11.604;2023-03-19T00:23:01;8.30;99.90
4052;DHT22;2040;50.924;11.604;2023-03-19T00:25:26;8.30;99.90
4052;DHT22;2040;50.924;11.604;2023-03-19T00:27:52;8.40;99.90
4052;DHT22;2040;50.924;11.604;2023-03-19T00:30:19;8.40;99.90
4052;DHT22;2040;50.924;11.604;2023-03-19T00:32:45;8.40;99.90
4052;DHT22;2040;50.924;11.604;2023-03-19T00:35:11;8.40;99.90
4052;DHT22;2040;50.924;11.604;2023-03-19T00:37:37;8.40;99.90
4052;DHT22;2040;50.924;11.604;2023-03-19T00:40:03;8.50;99.90
4052;DHT22;2040;50.924;11.604;2023-03-19T00:42:30;8.50;99.90
4052;DHT22;2040;50.924;11.604;2023-03-19T00:44:55;8.30;99.90
4052;DHT22;2040;50.924;11.604;2023-03-19T00:47:21;8.30;99.90
4052;DHT22;2040;50.924;11.604;2023-03-19T00:49:47;8.30;99.90
4052;DHT22;2040;50.924;11.604;2023-03-19T00:52:13;8.40;99.90
4052;DHT22;2040;50.924;11.604;2023-03-19T00:54:38;8.40;99.90
4052;DHT22;2040;50.924;11.604;2023-03-19T00:57:04;8.50;99.90
4052;DHT22;2040;50.924;11.604;2023-03-19T00:59:30;8.50;99.90
4052;DHT22;2040;50.924;11.604;2023-03-19T01:01:55;8.40;99.90
4052;DHT22;2040;50.924;11.604;2023-03-19T01:04:23;8.40;99.90
4052;DHT22;2040;50.924;11.604;2023-03-19T01:06:49;8.40;99.90
4052;DHT22;2040;50.924;11.604;2023-03-19T01:09:15;8.40;99.90
4052;DHT22;2040;50.924;11.604;2023-03-19T01:11:40;8.50;99.90
4052;DHT22;2040;50.924;11.604;2023-03-19T01:14:06;8.50;99.90
4052;DHT22;2040;50.924;11.604;2023-03-19T01:16:32;8.50;99.90
4052;DHT22;2040;50.924;11.604;2023-03-19T01:18:59;8.50;99.90
4052;DHT22;2040;50.924;11.604;2023-03-19T01:21:25;8.50;99.90
4052;DHT22;2040;50.924;11.604;2023-03-19T01:23:51;8.40;99.90
4052;DHT22;2040;50.924;11.604;2023-03-19T01:26:17;8.40;99.90
4052;DHT22;2040;50.924;11.604;2023-03-19T01:28:43;8.40;99.90
4052;DHT22;2040;50.924;11.604;2023-03-19T01:31:09;8.60;99.90
4052;DHT22;2040;50.924;11.604;2023-03-19T01:33:35;8.70;99.90
4052;DHT22;2040;50.924;11.604;2023-03-19T01:36:02;8.80;99.90
4052;DHT22;2040;50.924;11.604;2023-03-19T01:38:30;9.00;99.90
4052;DHT22;2040;50.924;11.604;2023-03-19T01:40:55;9.00;99.90
4052;DHT22;2040;50.924;11.604;2023-03-19T01:43:23;8.90;99.90
4052;DHT22;2040;50.924;11.604;2023-03-19T01:45:51;9.10;99.90
4052;DHT22;2040;50.924;11.604;2023-03-19T01:48:31;9.10;99.90
4052;DHT22;2040;50.924;11.604;2023-03-19T01:51:01;9.00;99.90
4052;DHT22;2040;50.924;11.604;2023-03-19T01:53:30;8.80;99.90
4052;DHT22;2040;50.924;11.604;2023-03-19T01:58:35;8.10;99.90
4052;DHT22;2040;50.924;11.604;2023-03-19T02:01:01;7.90;99.90
4052;DHT22;2040;50.924;11.604;2023-03-19T02:03:27;7.80;99.90
4052;DHT22;2040;50.924;11.604;2023-03-19T02:05:54;7.90;99.90
4052;DHT22;2040;50.924;11.604;2023-03-19T02:08:22;8.10;99.90
4052;DHT22;2040;50.924;11.604;2023-03-19T02:10:49;8.20;99.90
4052;DHT22;2040;50.924;11.604;2023-03-19T02:13:15;8.50;99.90
4052;DHT22;2040;50.924;11.604;2023-03-19T02:15:41;8.60;99.90
4052;DHT22;2040;50.924;11.604;2023-03-19T02:18:07;8.50;99.90
4052;DHT22;2040;50.924;11.604;2023-03-19T02:20:48;8.50;99.90
4052;DHT22;2040;50.924;11.604;2023-03-19T02:26:04;8.60;99.90
4052;DHT22;2040;50.924;11.604;2023-03-19T02:28:31;8.60;99.90
4052;DHT22;2040;50.924;11.604;2023-03-19T02:30:57;8.70;99.90
4052;DHT22;2040;50.924;11.604;2023-03-19T02:33:23;8.80;99.90
4052;DHT22;2040;50.924;11.604;2023-03-19T02:35:50;8.90;99.90
4052;DHT22;2040;50.924;11.604;2023-03-19T02:38:16;8.90;99.90
4052;DHT22;2040;50.924;11.604;2023-03-19T02:40:50;8.90;99.90
4052;DHT22;2040;50.924;11.604;2023-03-19T02:43:16;8.90;99.90
4052;DHT22;2040;50.924;11.604;2023-03-19T02:45:42;8.50;99.90
4052;DHT22;2040;50.924;11.604;2023-03-19T02:48:08;8.10;99.90
4052;DHT22;2040;50.924;11.604;2023-03-19T02:50:33;7.90;99.90
4052;DHT22;2040;50.924;11.604;2023-03-19T02:52:59;7.90;99.90
4052;DHT22;2040;50.924;11.604;2023-03-19T02:55:24;7.70;99.90
4052;DHT22;2040;50.924;11.604;2023-03-19T02:57:50;7.60;99.90
4052;DHT22;2040;50.924;11.604;2023-03-19T03:00:16;7.60;99.90
4052;DHT22;2040;50.924;11.604;2023-03-19T03:02:43;7.70;99.90
4052;DHT22;2040;50.924;11.604;2023-03-19T03:05:09;7.70;99.90
4052;DHT22;2040;50.924;11.604;2023-03-19T03:07:34;7.50;99.90
4052;DHT22;2040;50.924;11.604;2023-03-19T03:10:00;7.30;99.90
4052;DHT22;2040;50.924;11.604;2023-03-19T03:12:26;7.30;99.90
4052;DHT22;2040;50.924;11.604;2023-03-19T03:14:51;7.40;99.90
4052;DHT22;2040;50.924;11.604;2023-03-19T03:17:17;7.40;99.90
4052;DHT22;2040;50.924;11.604;2023-03-19T03:19:43;7.50;99.90
4052;DHT22;2040;50.924;11.604;2023-03-19T03:22:09;7.60;99.90
4052;DHT22;2040;50.924;11.604;2023-03-19T03:24:35;7.70;99.90
4052;DHT22;2040;50.924;11.604;2023-03-19T03:27:01;7.80;99.90
4052;DHT22;2040;50.924;11.604;2023-03-19T03:29:26;7.70;99.90
4052;DHT22;2040;50.924;11.604;2023-03-19T03:31:52;7.50;99.90
4052;DHT22;2040;50.924;11.604;2023-03-19T03:34:18;7.50;99.90
4052;DHT22;2040;50.924;11.604;2023-03-19T03:36:44;7.40;99.90
4052;DHT22;2040;50.924;11.604;2023-03-19T03:39:11;7.30;99.90
4052;DHT22;2040;50.924;11.604;2023-03-19T03:41:38;7.10;99.90
4052;DHT22;2040;50.924;11.604;2023-03-19T03:44:04;7.20;99.90
4052;DHT22;2040;50.924;11.604;2023-03-19T03:46:29;7.30;99.90
4052;DHT22;2040;50.924;11.604;2023-03-19T03:48:55;7.30;99.90
4052;DHT22;2040;50.924;11.604;2023-03-19T03:51:20;7.20;99.90
4052;DHT22;2040;50.924;11.604;2023-03-19T03:53:46;7.10;99.90
4052;DHT22;2040;50.924;11.604;2023-03-19T03:56:12;6.90;99.90
4052;DHT22;2040;50.924;11.604;2023-03-19T03:58:38;6.90;99.90
4052;DHT22;2040;50.924;11.604;2023-03-19T04:01:03;6.90;99.90
4052;DHT22;2040;50.924;11.604;2023-03-19T04:03:29;7.00;99.90
4052;DHT22;2040;50.924;11.604;2023-03-19T04:05:54;6.80;99.90
4052;DHT22;2040;50.924;11.604;2023-03-19T04:08:20;6.60;99.90
4052;DHT22;2040;50.924;11.604;2023-03-19T04:10:46;6.50;99.90
4052;DHT22;2040;50.924;11.604;2023-03-19T04:13:12;6.40;99.90
4052;DHT22;2040;50.924;11.604;2023-03-19T04:15:37;6.40;99.90
4052;DHT22;2040;50.924;11.604;2023-03-19T04:18:03;6.20;99.90
4052;DHT22;2040;50.924;11.604;2023-03-19T04:20:29;6.00;99.90
4052;DHT22;2040;50.924;11.604;2023-03-19T04:22:55;6.00;99.90
4052;DHT22;2040;50.924;11.604;2023-03-19T04:25:21;6.00;99.90
4052;DHT22;2040;50.924;11.604;2023-03-19T04:27:46;6.10;99.90
4052;DHT22;2040;50.924;11.604;2023-03-19T04:30:12;6.30;99.90
4052;DHT22;2040;50.924;11.604;2023-03-19T04:32:38;6.50;99.90
4052;DHT22;2040;50.924;11.604;2023-03-19T04:35:05;6.60;99.90
4052;DHT22;2040;50.924;11.604;2023-03-19T04:37:30;6.40;99.90
4052;DHT22;2040;50.924;11.604;2023-03-19T04:39:56;6.20;99.90
4052;DHT22;2040;50.924;11.604;2023-03-19T04:42:22;6.00;99.90
4052;DHT22;2040;50.924;11.604;2023-03-19T04:44:48;5.80;99.90
4052;DHT22;2040;50.924;11.604;2023-03-19T04:47:13;5.80;99.90
4052;DHT22;2040;50.924;11.604;2023-03-19T04:49:39;5.80;99.90
4052;DHT22;2040;50.924;11.604;2023-03-19T04:52:04;6.20;99.90
4052;DHT22;2040;50.924;11.604;2023-03-19T04:54:30;6.30;99.90
4052;DHT22;2040;50.924;11.604;2023-03-19T04:56:56;6.10;99.90
4052;DHT22;2040;50.924;11.604;2023-03-19T04:59:21;5.90;99.90
4052;DHT22;2040;50.924;11.604;2023-03-19T05:01:47;5.90;99.90
4052;DHT22;2040;50.924;11.604;2023-03-19T05:04:13;5.90;99.90
4052;DHT22;2040;50.924;11.604;2023-03-19T05:06:38;6.10;99.90
4052;DHT22;2040;50.924;11.604;2023-03-19T05:09:05;5.90;99.90
4052;DHT22;2040;50.924;11.604;2023-03-19T05:11:31;6.00;99.90
4052;DHT22;2040;50.924;11.604;2023-03-19T05:13:57;6.10;99.90
4052;DHT22;2040;50.924;11.604;2023-03-19T05:16:22;6.00;99.90
4052;DHT22;2040;50.924;11.604;2023-03-19T05:18:48;5.90;99.90
4052;DHT22;2040;50.924;11.604;2023-03-19T05:21:14;5.80;99.90
4052;DHT22;2040;50.924;11.604;2023-03-19T05:23:40;5.80;99.90
4052;DHT22;2040;50.924;11.604;2023-03-19T05:26:06;5.90;99.90
4052;DHT22;2040;50.924;11.604;2023-03-19T05:28:33;5.80;99.90
4052;DHT22;2040;50.924;11.604;2023-03-19T05:30:58;5.90;99.90
4052;DHT22;2040;50.924;11.604;2023-03-19T05:33:24;5.90;99.90
4052;DHT22;2040;50.924;11.604;2023-03-19T05:35:50;5.70;99.90
4052;DHT22;2040;50.924;11.604;2023-03-19T05:38:16;5.70;99.90
4052;DHT22;2040;50.924;11.604;2023-03-19T05:40:42;5.80;99.90
4052;DHT22;2040;50.924;11.604;2023-03-19T05:43:08;6.10;99.90
4052;DHT22;2040;50.924;11.604;2023-03-19T05:45:35;6.20;99.90
4052;DHT22;2040;50.924;11.604;2023-03-19T05:48:01;6.20;99.90
4052;DHT22;2040;50.924;11.604;2023-03-19T05:50:27;6.20;99.90
4052;DHT22;2040;50.924;11.604;2023-03-19T05:52:53;6.10;99.90
4052;DHT22;2040;50.924;11.604;2023-03-19T05:55:18;6.20;99.90
4052;DHT22;2040;50.924;11.604;2023-03-19T05:57:44;6.10;99.90
4052;DHT22;2040;50.924;11.604;2023-03-19T06:00:10;6.00;99.90
4052;DHT22;2040;50.924;11.604;2023-03-19T06:02:37;6.10;99.90
4052;DHT22;2040;50.924;11.604;2023-03-19T06:05:03;6.20;99.90
4052;DHT22;2040;50.924;11.604;2023-03-19T06:07:29;6.20;99.90
4052;DHT22;2040;50.924;11.604;2023-03-19T06:09:54;6.20;99.90
4052;DHT22;2040;50.924;11.604;2023-03-19T06:12:20;6.30;99.90
4052;DHT22;2040;50.924;11.604;2023-03-19T06:14:46;6.30;99.90
4052;DHT22;2040;50.924;11.604;2023-03-19T06:17:12;6.40;99.90
4052;DHT22;2040;50.924;11.604;2023-03-19T06:19:38;6.50;99.90
4052;DHT22;2040;50.924;11.604;2023-03-19T06:22:03;6.60;99.90
4052;DHT22;2040;50.924;11.604;2023-03-19T06:24:29;6.50;99.90
4052;DHT22;2040;50.924;11.604;2023-03-19T06:26:55;6.60;99.90
4052;DHT22;2040;50.924;11.604;2023-03-19T06:29:21;6.60;99.90
4052;DHT22;2040;50.924;11.604;2023-03-19T06:31:46;6.50;99.90
4052;DHT22;2040;50.924;11.604;2023-03-19T06:34:12;6.40;99.90
4052;DHT22;2040;50.924;11.604;2023-03-19T06:36:38;6.70;99.90
4052;DHT22;2040;50.924;11.604;2023-03-19T06:39:03;6.80;99.90
4052;DHT22;2040;50.924;11.604;2023-03-19T06:41:29;7.00;99.90
4052;DHT22;2040;50.924;11.604;2023-03-19T06:43:55;7.10;99.90
4052;DHT22;2040;50.924;11.604;2023-03-19T06:46:21;7.20;99.90
4052;DHT22;2040;50.924;11.604;2023-03-19T06:48:46;7.20;99.90
4052;DHT22;2040;50.924;11.604;2023-03-19T06:51:12;7.20;99.90
4052;DHT22;2040;50.924;11.604;2023-03-19T06:53:38;7.10;99.90
4052;DHT22;2040;50.924;11.604;2023-03-19T06:56:04;6.90;99.90
4052;DHT22;2040;50.924;11.604;2023-03-19T06:58:30;7.00;99.90
4052;DHT22;2040;50.924;11.604;2023-03-19T07:00:55;7.00;99.90
4052;DHT22;2040;50.924;11.604;2023-03-19T07:03:21;7.00;99.90
4052;DHT22;2040;50.924;11.604;2023-03-19T07:05:49;6.90;99.90
4052;DHT22;2040;50.924;11.604;2023-03-19T07:08:15;6.90;99.90
4052;DHT22;2040;50.924;11.604;2023-03-19T07:10:41;7.00;99.90
4052;DHT22;2040;50.924;11.604;2023-03-19T07:13:06;7.00;99.90
4052;DHT22;2040;50.924;11.604;2023-03-19T07:15:32;7.00;99.90
4052;DHT22;2040;50.924;11.604;2023-03-19T07:17:58;7.00;99.90
4052;DHT22;2040;50.924;11.604;2023-03-19T07:20:24;7.10;99.90
4052;DHT22;2040;50.924;11.604;2023-03-19T07:22:50;7.20;99.90
4052;DHT22;2040;50.924;11.604;2023-03-19T07:25:16;7.30;99.90
4052;DHT22;2040;50.924;11.604;2023-03-19T07:27:43;7.40;99.90
4052;DHT22;2040;50.924;11.604;2023-03-19T07:30:09;7.50;99.90
4052;DHT22;2040;50.924;11.604;2023-03-19T07:32:35;7.50;99.90
4052;DHT22;2040;50.924;11.604;2023-03-19T07:35:01;7.40;99.90
4052;DHT22;2040;50.924;11.604;2023-03-19T07:37:26;7.60;99.90
4052;DHT22;2040;50.924;11.604;2023-03-19T07:39:52;7.70;99.90
4052;DHT22;2040;50.924;11.604;2023-03-19T07:42:18;7.70;99.90
4052;DHT22;2040;50.924;11.604;2023-03-19T07:44:43;7.50;99.90
4052;DHT22;2040;50.924;11.604;2023-03-19T07:47:09;7.60;99.90
4052;DHT22;2040;50.924;11.604;2023-03-19T07:49:35;7.90;99.90
4052;DHT22;2040;50.924;11.604;2023-03-19T07:52:00;7.90;99.90
4052;DHT22;2040;50.924;11.604;2023-03-19T07:54:26;7.90;99.90
4052;DHT22;2040;50.924;11.604;2023-03-19T07:56:52;7.60;99.90
4052;DHT22;2040;50.924;11.604;2023-03-19T07:59:17;7.50;99.90
4052;DHT22;2040;50.924;11.604;2023-03-19T08:01:45;7.60;99.90
4052;DHT22;2040;50.924;11.604;2023-03-19T08:04:11;7.50;99.90
4052;DHT22;2040;50.924;11.604;2023-03-19T08:06:36;7.70;99.90
4052;DHT22;2040;50.924;11.604;2023-03-19T08:09:03;7.80;99.90
4052;DHT22;2040;50.924;11.604;2023-03-19T08:11:28;8.00;99.90
4052;DHT22;2040;50.924;11.604;2023-03-19T08:13:54;8.10;99.90
4052;DHT22;2040;50.924;11.604;2023-03-19T08:16:20;8.30;99.90
4052;DHT22;2040;50.924;11.604;2023-03-19T08:18:45;8.40;99.90
4052;DHT22;2040;50.924;11.604;2023-03-19T08:21:11;8.40;99.90
4052;DHT22;2040;50.924;11.604;2023-03-19T08:23:36;8.80;99.90
4052;DHT22;2040;50.924;11.604;2023-03-19T08:26:02;8.90;99.90
4052;DHT22;2040;50.924;11.604;2023-03-19T08:28:28;9.30;99.90
4052;DHT22;2040;50.924;11.604;2023-03-19T08:30:53;9.70;99.90
4052;DHT22;2040;50.924;11.604;2023-03-19T08:33:20;10.00;99.90
4052;DHT22;2040;50.924;11.604;2023-03-19T08:35:46;10.10;99.90
4052;DHT22;2040;50.924;11.604;2023-03-19T08:38:12;10.00;99.90
4052;DHT22;2040;50.924;11.604;2023-03-19T08:40:37;10.00;99.90
4052;DHT22;2040;50.924;11.604;2023-03-19T08:43:03;10.10;99.90
4052;DHT22;2040;50.924;11.604;2023-03-19T08:45:28;10.10;99.90
4052;DHT22;2040;50.924;11.604;2023-03-19T08:47:55;10.10;99.90
4052;DHT22;2040;50.924;11.604;2023-03-19T08:50:22;10.20;99.90
4052;DHT22;2040;50.924;11.604;2023-03-19T08:52:48;10.30;99.90
4052;DHT22;2040;50.924;11.604;2023-03-19T08:55:14;10.20;99.90
4052;DHT22;2040;50.924;11.604;2023-03-19T08:57:40;10.10;99.90
4052;DHT22;2040;50.924;11.604;2023-03-19T09:00:06;10.10;99.90
4052;DHT22;2040;50.924;11.604;2023-03-19T09:02:32;10.10;99.90
4052;DHT22;2040;50.924;11.604;2023-03-19T09:04:58;10.20;99.90
4052;DHT22;2040;50.924;11.604;2023-03-19T09:07:23;10.10;99.90
4052;DHT22;2040;50.924;11.604;2023-03-19T09:09:49;10.20;99.90
4052;DHT22;2040;50.924;11.604;2023-03-19T09:12:16;10.20;99.90
4052;DHT22;2040;50.924;11.604;2023-03-19T09:14:42;10.50;99.90
4052;DHT22;2040;50.924;11.604;2023-03-19T09:17:08;10.70;99.90
4052;DHT22;2040;50.924;11.604;2023-03-19T09:19:34;10.80;99.90
4052;DHT22;2040;50.924;11.604;2023-03-19T09:22:01;11.00;99.90
4052;DHT22;2040;50.924;11.604;2023-03-19T09:24:26;11.10;99.90
4052;DHT22;2040;50.924;11.604;2023-03-19T09:26:52;11.30;99.90
4052;DHT22;2040;50.924;11.604;2023-03-19T09:29:18;11.50;99.90
4052;DHT22;2040;50.924;11.604;2023-03-19T09:31:44;11.60;99.90
4052;DHT22;2040;50.924;11.604;2023-03-19T09:34:09;11.70;99.90
4052;DHT22;2040;50.924;11.604;2023-03-19T09:36:35;11.80;99.90
4052;DHT22;2040;50.924;11.604;2023-03-19T09:39:03;11.80;99.90
4052;DHT22;2040;50.924;11.604;2023-03-19T09:51:57;11.50;99.90
4052;DHT22;2040;50.924;11.604;2023-03-19T09:54:38;11.50;99.90
4052;DHT22;2040;50.924;11.604;2023-03-19T09:57:08;11.50;99.90
4052;DHT22;2040;50.924;11.604;2023-03-19T09:59:35;11.50;99.90
4052;DHT22;2040;50.924;11.604;2023-03-19T10:07:42;11.40;99.90
4052;DHT22;2040;50.924;11.604;2023-03-19T10:16:20;11.30;99.90
4052;DHT22;2040;50.924;11.604;2023-03-19T10:18:49;11.30;99.90
4052;DHT22;2040;50.924;11.604;2023-03-19T10:21:32;11.20;99.90
4052;DHT22;2040;50.924;11.604;2023-03-19T10:24:08;11.10;99.90
4052;DHT22;2040;50.924;11.604;2023-03-19T10:26:34;11.00;99.90
4052;DHT22;2040;50.924;11.604;2023-03-19T10:29:26;10.90;99.90
4052;DHT22;2040;50.924;11.604;2023-03-19T10:34:32;10.80;99.90
4052;DHT22;2040;50.924;11.604;2023-03-19T10:37:13;10.80;99.90
4052;DHT22;2040;50.924;11.604;2023-03-19T10:39:41;10.70;99.90
4052;DHT22;2040;50.924;11.604;2023-03-19T10:45:25;10.60;99.90
4052;DHT22;2040;50.924;11.604;2023-03-19T10:47:52;10.50;99.90
4052;DHT22;2040;50.924;11.604;2023-03-19T10:51:07;10.50;99.90
4052;DHT22;2040;50.924;11.604;2023-03-19T10:58:37;10.40;99.90
4052;DHT22;2040;50.924;11.604;2023-03-19T11:01:08;10.30;99.90
4052;DHT22;2040;50.924;11.604;2023-03-19T11:03:39;10.30;99.90
4052;DHT22;2040;50.924;11.604;2023-03-19T11:06:17;10.30;99.90
4052;DHT22;2040;50.924;11.604;2023-03-19T11:08:59;10.20;99.90
4052;DHT22;2040;50.924;11.604;2023-03-19T11:11:40;10.10;99.90
4052;DHT22;2040;50.924;11.604;2023-03-19T11:14:19;10.20;99.90
4052;DHT22;2040;50.924;11.604;2023-03-19T11:17:02;10.10;99.90
4052;DHT22;2040;50.924;11.604;2023-03-19T11:19:31;10.10;99.90
4052;DHT22;2040;50.924;11.604;2023-03-19T11:24:54;10.00;99.90
4052;DHT22;2040;50.924;11.604;2023-03-19T11:27:30;10.10;99.90
4052;DHT22;2040;50.924;11.604;2023-03-19T11:29:56;10.10;99.90
4052;DHT22;2040;50.924;11.604;2023-03-19T11:32:45;10.10;99.90
4052;DHT22;2040;50.924;11.604;2023-03-19T11:35:21;10.20;99.90
4052;DHT22;2040;50.924;11.604;2023-03-19T11:37:55;10.10;99.90
4052;DHT22;2040;50.924;11.604;2023-03-19T11:43:05;10.10;99.90
4052;DHT22;2040;50.924;11.604;2023-03-19T11:46:25;10.10;99.90
4052;DHT22;2040;50.924;11.604;2023-03-19T11:51:40;10.10;99.90
4052;DHT22;2040;50.924;11.604;2023-03-19T11:54:44;10.20;99.90
4052;DHT22;2040;50.924;11.604;2023-03-19T11:57:24;10.20;99.90
4052;DHT22;2040;50.924;11.604;2023-03-19T12:08:09;10.20;99.90
4052;DHT22;2040;50.924;11.604;2023-03-19T12:13:44;10.30;99.90
4052;DHT22;2040;50.924;11.604;2023-03-19T12:16:27;10.30;99.90
4052;DHT22;2040;50.924;11.604;2023-03-19T12:32:42;10.60;99.90
4052;DHT22;2040;50.924;11.604;2023-03-19T12:35:21;10.60;99.90
4052;DHT22;2040;50.924;11.604;2023-03-19T12:40:42;11.00;99.90
4052;DHT22;2040;50.924;11.604;2023-03-19T12:43:18;11.10;99.90
4052;DHT22;2040;50.924;11.604;2023-03-19T12:46:10;11.30;99.90
4052;DHT22;2040;50.924;11.604;2023-03-19T12:48:42;11.40;99.90
4052;DHT22;2040;50.924;11.604;2023-03-19T12:51:11;11.60;99.90
4052;DHT22;2040;50.924;11.604;2023-03-19T12:53:55;11.70;99.90
4052;DHT22;2040;50.924;11.604;2023-03-19T12:56:55;11.80;99.90
4052;DHT22;2040;50.924;11.604;2023-03-19T12:59:47;11.80;99.90
4052;DHT22;2040;50.924;11.604;2023-03-19T13:02:28;12.00;99.90
4052;DHT22;2040;50.924;11.604;2023-03-19T13:05:07;12.10;99.90
4052;DHT22;2040;50.924;11.604;2023-03-19T13:10:12;12.30;99.90
4052;DHT22;2040;50.924;11.604;2023-03-19T13:12:41;12.30;99.90
4052;DHT22;2040;50.924;11.604;2023-03-19T13:15:11;12.30;99.90
4052;DHT22;2040;50.924;11.604;2023-03-19T13:23:12;12.60;99.90
4052;DHT22;2040;50.924;11.604;2023-03-19T13:25:43;12.60;99.90
4052;DHT22;2040;50.924;11.604;2023-03-19T13:28:28;12.50;99.90
4052;DHT22;2040;50.924;11.604;2023-03-19T13:31:03;12.60;99.90
4052;DHT22;2040;50.924;11.604;2023-03-19T13:33:29;12.70;99.90
4052;DHT22;2040;50.924;11.604;2023-03-19T13:35:57;12.80;99.90
4052;DHT22;2040;50.924;11.604;2023-03-19T13:41:00;12.90;99.90
4052;DHT22;2040;50.924;11.604;2023-03-19T13:46:25;12.80;99.90
4052;DHT22;2040;50.924;11.604;2023-03-19T13:48:53;12.90;99.90
4052;DHT22;2040;50.924;11.604;2023-03-19T13:56:26;13.00;99.90
4052;DHT22;2040;50.924;11.604;2023-03-19T14:01:58;12.80;99.90
4052;DHT22;2040;50.924;11.604;2023-03-19T14:04:36;12.80;99.90
4052;DHT22;2040;50.924;11.604;2023-03-19T14:09:50;12.80;99.90
4052;DHT22;2040;50.924;11.604;2023-03-19T14:12:42;12.80;99.90
4052;DHT22;2040;50.924;11.604;2023-03-19T14:17:40;12.60;99.90
4052;DHT22;2040;50.924;11.604;2023-03-19T14:22:40;12.80;99.90
4052;DHT22;2040;50.924;11.604;2023-03-19T14:25:22;13.00;99.90
4052;DHT22;2040;50.924;11.604;2023-03-19T14:27:50;13.30;99.90
4052;DHT22;2040;50.924;11.604;2023-03-19T14:30:39;13.50;99.90
4052;DHT22;2040;50.924;11.604;2023-03-19T14:33:21;13.80;99.90
4052;DHT22;2040;50.924;11.604;2023-03-19T14:35:49;14.00;99.90
4052;DHT22;2040;50.924;11.604;2023-03-19T14:38:31;14.30;99.90
4052;DHT22;2040;50.924;11.604;2023-03-19T14:40:59;14.50;99.90
4052;DHT22;2040;50.924;11.604;2023-03-19T14:43:44;14.60;99.90
4052;DHT22;2040;50.924;11.604;2023-03-19T14:52:05;14.20;99.90
4052;DHT22;2040;50.924;11.604;2023-03-19T14:54:45;14.20;99.90
4052;DHT22;2040;50.924;11.604;2023-03-19T14:57:16;14.30;99.90
4052;DHT22;2040;50.924;11.604;2023-03-19T14:59:41;14.30;99.90
4052;DHT22;2040;50.924;11.604;2023-03-19T15:02:43;14.40;99.90
4052;DHT22;2040;50.924;11.604;2023-03-19T15:05:25;14.50;99.90
4052;DHT22;2040;50.924;11.604;2023-03-19T15:07:55;14.60;99.90
4052;DHT22;2040;50.924;11.604;2023-03-19T15:10:25;14.80;99.90
4052;DHT22;2040;50.924;11.604;2023-03-19T15:13:28;14.90;99.90
4052;DHT22;2040;50.924;11.604;2023-03-19T15:16:21;15.20;99.90
4052;DHT22;2040;50.924;11.604;2023-03-19T15:18:50;15.10;99.90
4052;DHT22;2040;50.924;11.604;2023-03-19T15:21:15;15.20;99.90
4052;DHT22;2040;50.924;11.604;2023-03-19T15:23:45;15.10;99.90
4052;DHT22;2040;50.924;11.604;2023-03-19T15:26:11;14.60;99.90
4052;DHT22;2040;50.924;11.604;2023-03-19T15:28:50;14.90;99.90
4052;DHT22;2040;50.924;11.604;2023-03-19T15:31:17;15.10;99.90
4052;DHT22;2040;50.924;11.604;2023-03-19T15:33:43;15.20;99.90
4052;DHT22;2040;50.924;11.604;2023-03-19T15:36:24;15.30;99.90
4052;DHT22;2040;50.924;11.604;2023-03-19T15:38:54;15.40;99.90
4052;DHT22;2040;50.924;11.604;2023-03-19T15:41:24;15.40;99.90
4052;DHT22;2040;50.924;11.604;2023-03-19T15:43:50;15.40;99.90
4052;DHT22;2040;50.924;11.604;2023-03-19T15:46:20;15.50;99.90
4052;DHT22;2040;50.924;11.604;2023-03-19T15:51:30;15.20;99.90
4052;DHT22;2040;50.924;11.604;2023-03-19T15:53:57;15.00;99.90
4052;DHT22;2040;50.924;11.604;2023-03-19T15:56:23;15.10;99.90
4052;DHT22;2040;50.924;11.604;2023-03-19T15:58:51;15.00;99.90
4052;DHT22;2040;50.924;11.604;2023-03-19T16:01:19;14.90;99.90
4052;DHT22;2040;50.924;11.604;2023-03-19T16:03:54;14.90;99.90
4052;DHT22;2040;50.924;11.604;2023-03-19T16:09:16;15.00;99.90
4052;DHT22;2040;50.924;11.604;2023-03-19T16:11:45;15.10;99.90
4052;DHT22;2040;50.924;11.604;2023-03-19T16:16:44;14.90;99.90
4052;DHT22;2040;50.924;11.604;2023-03-19T16:19:34;14.90;99.90
4052;DHT22;2040;50.924;11.604;2023-03-19T16:22:11;14.50;99.90
4052;DHT22;2040;50.924;11.604;2023-03-19T16:24:40;14.10;99.90
4052;DHT22;2040;50.924;11.604;2023-03-19T16:27:14;14.00;99.90
4052;DHT22;2040;50.924;11.604;2023-03-19T16:29:46;13.90;99.90
4052;DHT22;2040;50.924;11.604;2023-03-19T16:32:20;13.60;99.90
4052;DHT22;2040;50.924;11.604;2023-03-19T16:34:54;13.50;99.90
4052;DHT22;2040;50.924;11.604;2023-03-19T16:37:40;13.30;99.90
4052;DHT22;2040;50.924;11.604;2023-03-19T16:42:44;12.80;99.90
4052;DHT22;2040;50.924;11.604;2023-03-19T16:45:20;12.60;99.90
4052;DHT22;2040;50.924;11.604;2023-03-19T16:47:48;12.50;99.90
4052;DHT22;2040;50.924;11.604;2023-03-19T16:50:15;12.50;99.90
4052;DHT22;2040;50.924;11.604;2023-03-19T16:52:43;12.50;99.90
4052;DHT22;2040;50.924;11.604;2023-03-19T16:55:29;12.50;99.90
4052;DHT22;2040;50.924;11.604;2023-03-19T16:58:33;12.30;99.90
4052;DHT22;2040;50.924;11.604;2023-03-19T17:00:59;12.20;99.90
4052;DHT22;2040;50.924;11.604;2023-03-19T17:03:26;12.20;99.90
4052;DHT22;2040;50.924;11.604;2023-03-19T17:05:54;12.00;99.90
4052;DHT22;2040;50.924;11.604;2023-03-19T17:08:20;12.00;99.90
4052;DHT22;2040;50.924;11.604;2023-03-19T17:10:49;12.00;99.90
4052;DHT22;2040;50.924;11.604;2023-03-19T17:13:19;12.00;99.90
4052;DHT22;2040;50.924;11.604;2023-03-19T17:15:46;11.90;99.90
4052;DHT22;2040;50.924;11.604;2023-03-19T17:18:18;11.90;99.90
4052;DHT22;2040;50.924;11.604;2023-03-19T17:20:51;11.90;99.90
4052;DHT22;2040;50.924;11.604;2023-03-19T17:23:16;11.90;99.90
4052;DHT22;2040;50.924;11.604;2023-03-19T17:25:43;11.90;99.90
4052;DHT22;2040;50.924;11.604;2023-03-19T17:28:09;11.80;99.90
4052;DHT22;2040;50.924;11.604;2023-03-19T17:30:36;11.70;99.90
4052;DHT22;2040;50.924;11.604;2023-03-19T17:33:02;11.70;99.90
4052;DHT22;2040;50.924;11.604;2023-03-19T17:35:28;11.60;99.90
4052;DHT22;2040;50.924;11.604;2023-03-19T17:37:54;11.60;99.90
4052;DHT22;2040;50.924;11.604;2023-03-19T17:40:24;11.50;99.90
4052;DHT22;2040;50.924;11.604;2023-03-19T17:42:54;11.50;99.90
4052;DHT22;2040;50.924;11.604;2023-03-19T17:45:24;11.40;99.90
4052;DHT22;2040;50.924;11.604;2023-03-19T17:47:53;11.50;99.90
4052;DHT22;2040;50.924;11.604;2023-03-19T17:50:26;11.50;99.90
4052;DHT22;2040;50.924;11.604;2023-03-19T17:52:53;11.50;99.90
4052;DHT22;2040;50.924;11.604;2023-03-19T17:55:24;11.60;99.90
4052;DHT22;2040;50.924;11.604;2023-03-19T17:57:50;11.60;99.90
4052;DHT22;2040;50.924;11.604;2023-03-19T18:00:18;11.40;99.90
4052;DHT22;2040;50.924;11.604;2023-03-19T18:02:45;11.40;99.90
4052;DHT22;2040;50.924;11.604;2023-03-19T18:05:29;11.30;99.90
4052;DHT22;2040;50.924;11.604;2023-03-19T18:07:55;11.30;99.90